Time;durP1;ratioP1;P1;durP2;ratioP2;P2;SDS_P1;SDS_P2;PMS_P1;PMS_P2;Temp;Humidity;BMP_temperature;BMP_pressure;BME280_temperature;BME280_humidity;BME280_pressure;Samples;Min_cycle;Max_cycle;Signal;HPM_P1;HPM_P2
2022/05/20 00:01:39;;;;;;;15.75;11.43;;;;;;;14.05;70.20;99844.25;5043433;28;20107;-56
2022/05/20 00:04:09;;;;;;;19.90;11.80;;;;;;;14.48;69.32;99858.41;5043197;28;20053;-56
2022/05/20 00:06:40;;;;;;;35.22;12.30;;;;;;;14.86;68.77;99853.44;5043200;28;20056;-52
2022/05/20 00:09:10;;;;;;;18.33;11.88;;;;;;;15.17;67.95;99857.44;5043042;28;20068;-56
2022/05/20 00:11:43;;;;;;;22.63;11.68;;;;;;;15.65;66.73;99859.75;5043000;28;20057;-54
2022/05/20 00:14:13;;;;;;;16.65;11.57;;;;;;;16.14;65.62;99862.00;5042827;28;20049;-56
2022/05/20 00:16:44;;;;;;;21.17;10.80;;;;;;;16.54;63.63;99860.13;5043435;28;20061;-56
2022/05/20 00:19:15;;;;;;;28.23;11.67;;;;;;;16.83;62.17;99871.97;5042997;28;20622;-55
2022/05/20 00:21:45;;;;;;;18.77;10.80;;;;;;;17.14;62.07;99866.03;5043358;28;20291;-55
2022/05/20 00:24:16;;;;;;;15.20;9.67;;;;;;;17.62;61.42;99869.78;5042353;28;20347;-57
2022/05/20 00:26:50;;;;;;;16.57;9.80;;;;;;;17.39;59.33;99872.72;5042164;28;20290;-56
2022/05/20 00:29:21;;;;;;;21.60;10.03;;;;;;;16.93;60.12;99867.13;5046221;28;20298;-57
2022/05/20 00:31:51;;;;;;;13.63;9.37;;;;;;;16.70;61.44;99876.97;5047191;28;20292;-56
2022/05/20 00:34:22;;;;;;;19.37;9.37;;;;;;;16.73;61.67;99863.63;5046346;28;20299;-57
2022/05/20 00:36:52;;;;;;;14.73;8.83;;;;;;;16.94;60.89;99867.03;5047251;28;20286;-54
2022/05/20 00:39:23;;;;;;;12.73;8.43;;;;;;;17.17;60.37;99860.63;5045683;28;20326;-54
2022/05/20 00:41:55;;;;;;;11.93;7.90;;;;;;;17.32;59.82;99864.25;5045696;28;20284;-55
2022/05/20 00:44:26;;;;;;;13.90;8.17;;;;;;;17.35;59.49;99866.75;5047049;28;20308;-55
2022/05/20 00:46:57;;;;;;;12.47;8.43;;;;;;;17.14;58.97;99855.47;5047260;28;20279;-57
2022/05/20 00:49:29;;;;;;;23.70;9.17;;;;;;;17.35;59.81;99858.00;5046068;28;20605;-57
2022/05/20 00:52:00;;;;;;;12.17;7.80;;;;;;;17.80;58.09;99849.50;5046413;28;20362;-55
2022/05/20 00:54:35;;;;;;;23.73;8.43;;;;;;;17.86;57.57;99858.88;5045963;28;20284;-57
2022/05/20 00:57:13;;;;;;;15.73;8.20;;;;;;;17.62;57.38;99869.78;5045740;28;20322;-56
2022/05/20 00:59:54;;;;;;;14.03;7.47;;;;;;;17.55;57.45;99875.47;5045715;28;20284;-56
2022/05/20 01:02:26;;;;;;;20.03;7.60;;;;;;;17.14;57.76;99801.81;5046518;28;20288;-58
2022/05/20 01:04:59;;;;;;;19.40;8.93;;;;;;;17.40;58.08;99833.03;5046759;28;20292;-58
2022/05/20 01:07:31;;;;;;;12.63;8.47;;;;;;;17.46;56.75;99858.28;5046644;28;20717;-58
2022/05/20 01:10:02;;;;;;;142.60;26.20;;;;;;;17.60;58.69;99863.72;5046760;28;20319;-59
2022/05/20 01:12:35;;;;;;;30.23;8.87;;;;;;;17.91;57.21;99862.13;5045805;28;20577;-57
2022/05/20 01:15:06;;;;;;;18.10;8.73;;;;;;;18.14;56.51;99878.56;5045795;28;20288;-56
2022/05/20 01:17:37;;;;;;;13.80;7.80;;;;;;;18.47;56.71;99882.03;5045274;28;20578;-55
2022/05/20 01:20:13;;;;;;;18.07;7.97;;;;;;;18.59;55.21;99874.31;5045910;28;20307;-56
2022/05/20 01:23:00;;;;;;;40.30;9.47;;;;;;;18.85;56.31;99876.41;5045359;28;20295;-57
2022/05/20 01:25:32;;;;;;;12.17;7.50;;;;;;;18.78;55.63;99800.94;5046142;28;20295;-57
2022/05/20 01:28:02;;;;;;;15.33;7.93;;;;;;;19.70;52.73;99890.06;5045974;28;20296;-56
2022/05/20 01:30:33;;;;;;;13.83;7.43;;;;;;;19.60;53.40;99889.72;5045081;28;20357;-59
2022/05/20 01:33:07;;;;;;;14.10;6.63;;;;;;;19.44;52.87;99883.59;5045245;28;20694;-57
2022/05/20 01:35:43;;;;;;;15.97;7.13;;;;;;;19.32;53.23;99885.16;5045930;28;20509;-56
2022/05/20 01:38:15;;;;;;;15.03;6.70;;;;;;;19.38;52.31;99880.38;5044635;28;20303;-57
2022/05/20 01:40:49;;;;;;;13.87;6.17;;;;;;;19.03;53.06;99869.19;5044748;28;20338;-58
2022/05/20 01:43:35;;;;;;;9.90;5.90;;;;;;;18.82;52.85;99876.59;5045872;28;20712;-57
2022/05/20 01:46:16;;;;;;;11.87;6.40;;;;;;;18.70;53.20;99888.66;5044686;28;20342;-57
2022/05/20 01:48:54;;;;;;;10.63;5.87;;;;;;;18.70;53.83;99888.66;5044469;28;20342;-58
2022/05/20 01:51:31;;;;;;;16.10;6.07;;;;;;;18.66;53.72;99886.28;5044900;28;20283;-56
2022/05/20 01:54:09;;;;;;;10.90;6.03;;;;;;;18.74;53.60;99897.28;5045401;28;20612;-56
2022/05/20 01:56:46;;;;;;;11.77;6.67;;;;;;;18.46;53.70;99858.28;5045525;28;20740;-59
2022/05/20 01:59:22;;;;;;;11.60;6.70;;;;;;;18.57;54.12;99889.44;5045167;28;20700;-57
2022/05/20 02:01:57;;;;;;;8.70;6.00;;;;;;;18.40;54.05;99875.34;5045195;28;20330;-58
2022/05/20 02:04:34;;;;;;;9.80;6.20;;;;;;;18.26;54.13;99877.88;5045808;28;20283;-57
2022/05/20 02:07:12;;;;;;;8.90;5.83;;;;;;;18.05;54.54;99893.13;5045533;28;20525;-57
2022/05/20 02:09:47;;;;;;;11.37;6.53;;;;;;;17.87;55.03;99897.56;5045203;28;20288;-55
2022/05/20 02:12:21;;;;;;;16.03;6.57;;;;;;;17.86;55.34;99895.88;5044632;28;20300;-57
2022/05/20 02:14:57;;;;;;;11.57;6.70;;;;;;;18.00;55.70;99908.38;5044510;28;20310;-55
2022/05/20 02:17:31;;;;;;;24.37;7.97;;;;;;;18.07;55.75;99905.34;5044644;28;20292;-58
2022/05/20 02:20:08;;;;;;;9.23;6.20;;;;;;;18.21;55.60;99901.09;5044209;28;20362;-57
2022/05/20 02:22:48;;;;;;;9.50;6.23;;;;;;;18.36;54.75;99894.97;5044400;28;20288;-57
2022/05/20 02:25:24;;;;;;;7.77;5.70;;;;;;;18.41;54.50;99892.91;5045105;28;20741;-57
2022/05/20 02:27:58;;;;;;;34.23;7.27;;;;;;;18.52;54.70;99901.13;5045062;28;20365;-56
2022/05/20 02:30:33;;;;;;;10.60;6.07;;;;;;;18.92;54.77;99895.41;5043827;28;20295;-56
2022/05/20 02:33:09;;;;;;;12.23;6.40;;;;;;;19.18;52.91;99893.94;5044780;28;20834;-57
2022/05/20 02:35:39;;;;;;;12.57;6.50;;;;;;;19.39;52.61;99895.34;5044208;28;20288;-59
2022/05/20 02:38:13;;;;;;;8.83;5.80;;;;;;;19.29;52.53;99891.50;5043653;28;20276;-57
2022/05/20 02:40:49;;;;;;;14.50;6.20;;;;;;;19.23;52.58;99897.19;5044567;28;20287;-57
2022/05/20 02:43:20;;;;;;;44.10;6.80;;;;;;;19.10;53.02;99901.47;5044668;28;20285;-55
2022/05/20 02:45:52;;;;;;;9.47;6.60;;;;;;;18.94;52.82;99891.75;5044368;28;20284;-57
2022/05/20 02:48:24;;;;;;;15.40;6.57;;;;;;;18.83;52.43;99899.44;5043647;28;20286;-56
2022/05/20 02:50:55;;;;;;;9.80;5.20;;;;;;;18.56;52.73;99875.34;5044458;28;20284;-55
2022/05/20 02:53:25;;;;;;;8.93;4.73;;;;;;;18.46;52.20;99890.88;5044519;28;20292;-57
2022/05/20 02:55:59;;;;;;;8.93;4.53;;;;;;;18.44;52.97;99898.03;5043677;28;20291;-56
2022/05/20 03:04:14;;;;;;;7.53;5.50;;;;;;;18.29;53.75;99898.88;5042420;28;20351;-56
2022/05/20 03:06:46;;;;;;;10.23;4.30;;;;;;;18.00;51.86;99903.94;5044467;28;20322;-56
2022/05/20 03:09:22;;;;;;;8.73;4.73;;;;;;;18.06;53.05;99903.59;5042933;28;20287;-57
2022/05/20 03:11:54;;;;;;;12.63;5.13;;;;;;;18.17;52.81;99904.81;5044328;28;20333;-54
2022/05/20 03:14:25;;;;;;;26.87;4.23;;;;;;;17.61;48.39;99839.00;5044138;28;20292;-57
2022/05/20 03:17:00;;;;;;;16.40;3.97;;;;;;;17.82;48.72;99910.19;5043168;28;20287;-57
2022/05/20 03:19:31;;;;;;;15.30;3.87;;;;;;;17.53;48.05;99899.31;5043062;28;20338;-57
2022/05/20 03:22:02;;;;;;;27.17;4.00;;;;;;;17.38;48.54;99910.66;5042675;28;20303;-56
2022/05/20 03:24:33;;;;;;;24.77;3.60;;;;;;;17.27;48.67;99876.84;5042769;28;20287;-56
2022/05/20 03:27:06;;;;;;;12.20;3.93;;;;;;;17.67;49.01;99907.38;5041881;28;20293;-56
2022/05/20 03:29:36;;;;;;;9.80;2.90;;;;;;;17.84;48.30;99913.59;5041277;28;20296;-58
2022/05/20 03:32:08;;;;;;;13.30;6.40;;;;;;;17.95;48.62;99913.91;5042617;28;20288;-56
2022/05/20 03:34:39;;;;;;;9.50;3.23;;;;;;;18.17;48.67;99910.13;5043675;28;20330;-55
2022/05/20 03:37:09;;;;;;;6.27;3.20;;;;;;;18.30;48.16;99911.19;5042389;28;20317;-54
2022/05/20 03:39:40;;;;;;;8.80;3.17;;;;;;;18.39;48.26;99905.38;5040195;28;20409;-55
2022/05/20 03:42:12;;;;;;;5.20;3.30;;;;;;;18.36;45.87;99905.53;5042758;28;20329;-55
2022/05/20 03:44:42;;;;;;;13.63;3.53;;;;;;;18.46;47.28;99906.75;5040752;28;20660;-56
2022/05/20 03:47:13;;;;;;;22.87;4.30;;;;;;;18.56;44.79;99903.59;5042775;28;20350;-56
2022/05/20 03:49:44;;;;;;;6.97;3.43;;;;;;;18.37;44.60;99912.56;5042398;28;20337;-58
2022/05/20 03:52:15;;;;;;;6.00;2.73;;;;;;;18.25;45.65;99900.00;5041473;28;20347;-57
2022/05/20 03:54:46;;;;;;;3.83;2.70;;;;;;;18.24;44.76;99908.84;5042477;28;20560;-57
2022/05/20 03:57:18;;;;;;;12.07;3.53;;;;;;;18.19;45.48;99906.44;5040945;28;20301;-57
2022/05/20 03:59:48;;;;;;;4.00;3.10;;;;;;;18.17;45.92;99920.69;5041493;28;20637;-56
2022/05/20 04:02:18;;;;;;;8.33;3.27;;;;;;;18.00;47.11;99909.22;5042017;28;20514;-57
2022/05/20 04:04:52;;;;;;;5.50;2.90;;;;;;;17.99;47.63;99902.22;5041703;28;20303;-58
2022/05/20 04:07:25;;;;;;;4.80;2.80;;;;;;;17.67;48.38;99830.75;5042390;28;20327;-58
2022/05/20 04:09:56;;;;;;;7.03;2.93;;;;;;;18.31;48.69;99920.81;5042169;28;20295;-58
2022/05/20 04:12:30;;;;;;;5.17;2.70;;;;;;;18.70;48.42;99909.00;5041694;28;20288;-57
2022/05/20 04:15:01;;;;;;;13.43;4.03;;;;;;;19.15;47.28;99907.38;5041404;28;20709;-57
2022/05/20 04:17:32;;;;;;;3.80;2.40;;;;;;;19.56;44.02;99917.34;5041412;28;20296;-58
2022/05/20 04:20:03;;;;;;;5.07;3.30;;;;;;;19.32;43.56;99920.50;5038291;28;20374;-57
2022/05/20 04:22:35;;;;;;;6.23;2.50;;;;;;;19.19;44.20;99922.13;5039983;28;20341;-57
2022/05/20 04:25:07;;;;;;;6.70;2.67;;;;;;;19.21;44.70;99917.59;5039712;28;20337;-58
2022/05/20 04:27:40;;;;;;;5.23;3.10;;;;;;;19.26;42.34;99918.19;5039966;28;20304;-57
2022/05/20 04:30:12;;;;;;;4.87;2.80;;;;;;;19.14;44.45;99918.88;5039037;28;20299;-57
2022/05/20 04:32:42;;;;;;;5.20;2.30;;;;;;;18.91;44.14;99913.09;5040318;28;20498;-57
2022/05/20 04:35:13;;;;;;;6.50;2.40;;;;;;;18.88;43.76;99923.88;5040848;28;20311;-58
2022/05/20 04:37:43;;;;;;;17.17;3.10;;;;;;;18.80;44.69;99926.09;5040885;28;20362;-56
2022/05/20 04:40:15;;;;;;;3.00;2.50;;;;;;;19.01;44.88;99918.72;5042927;28;20315;-58
2022/05/20 04:48:29;;;;;;;4.40;2.47;;;;;;;19.68;43.55;99898.09;5042611;28;20545;-57
2022/05/20 04:51:00;;;;;;;7.43;2.67;;;;;;;19.95;43.76;99905.31;5042934;28;20284;-57
2022/05/20 04:56:18;;;;;;;3.80;2.57;;;;;;;19.74;43.01;99907.47;5041006;28;20292;-57
2022/05/20 04:58:50;;;;;;;5.30;2.67;;;;;;;19.59;44.03;99911.84;5041046;28;20280;-58
2022/05/20 05:01:20;;;;;;;4.63;2.50;;;;;;;19.44;44.18;99910.09;5042265;28;20326;-58
2022/05/20 05:03:51;;;;;;;4.30;2.80;;;;;;;19.30;42.72;99903.81;5042013;28;20288;-57
2022/05/20 05:06:21;;;;;;;7.23;2.90;;;;;;;19.26;43.82;99907.59;5041946;28;20296;-58
2022/05/20 05:08:53;;;;;;;4.47;2.60;;;;;;;19.40;43.66;99893.53;5042028;28;20291;-58
2022/05/20 05:11:36;;;;;;;5.93;2.83;;;;;;;19.42;43.41;99893.44;5043091;28;20575;-59
2022/05/20 05:14:10;;;;;;;6.47;2.60;;;;;;;19.63;43.66;99889.53;5043619;28;20908;-57
2022/05/20 05:17:07;;;;;;;60.23;8.37;;;;;;;19.52;42.66;99886.66;5041538;28;20382;-58
2022/05/20 05:19:41;;;;;;;6.63;2.70;;;;;;;19.42;42.88;99893.44;5046101;28;20306;-57
2022/05/20 05:22:12;;;;;;;8.87;3.13;;;;;;;19.37;43.37;99899.88;5044407;28;20288;-58
2022/05/20 05:24:43;;;;;;;3.60;2.40;;;;;;;19.13;42.17;99896.00;5044984;28;20287;-57
2022/05/20 05:27:13;;;;;;;4.37;2.70;;;;;;;18.81;42.14;99896.03;5043743;28;20295;-57
2022/05/20 05:29:46;;;;;;;3.33;2.50;;;;;;;18.66;42.47;99881.00;5045403;28;20334;-58
2022/05/20 05:32:16;;;;;;;6.07;2.70;;;;;;;18.58;42.49;99888.50;5042512;28;20355;-58
2022/05/20 05:34:47;;;;;;;26.47;3.73;;;;;;;18.51;42.98;99888.81;5045275;28;20295;-58
2022/05/20 05:37:17;;;;;;;5.63;2.67;;;;;;;18.73;42.27;99887.66;5044210;28;20653;-57
2022/05/20 05:39:48;;;;;;;17.13;2.70;;;;;;;18.98;42.98;99889.78;5042903;28;20300;-57
2022/05/20 05:42:20;;;;;;;7.07;2.83;;;;;;;18.92;42.40;99892.78;5043356;28;20308;-57
2022/05/20 05:44:54;;;;;;;12.50;3.03;;;;;;;18.60;42.94;99897.22;5043686;28;20354;-58
2022/05/20 05:47:25;;;;;;;7.97;2.60;;;;;;;18.39;43.48;99900.09;5043784;28;20368;-57
2022/05/20 05:49:56;;;;;;;17.07;3.53;;;;;;;18.23;44.93;99899.22;5041811;28;20288;-56
2022/05/20 05:52:27;;;;;;;12.50;3.03;;;;;;;18.17;45.57;99899.53;5045351;28;20284;-55
2022/05/20 05:54:57;;;;;;;4.73;2.60;;;;;;;18.19;45.97;99900.31;5042426;28;20318;-58
2022/05/20 05:57:28;;;;;;;13.37;3.73;;;;;;;18.06;46.55;99908.91;5043252;28;20298;-58
2022/05/20 06:00:02;;;;;;;7.93;2.50;;;;;;;17.75;46.72;99908.78;5043172;28;20355;-57
2022/05/20 06:02:32;;;;;;;10.93;2.37;;;;;;;17.59;46.75;99912.19;5042518;28;20296;-56
2022/05/20 06:05:03;;;;;;;18.10;2.70;;;;;;;17.53;48.22;99924.88;5043253;28;20365;-58
2022/05/20 06:07:33;;;;;;;10.77;2.80;;;;;;;17.25;46.23;99895.41;5044064;28;20609;-56
2022/05/20 06:10:05;;;;;;;11.07;2.40;;;;;;;16.88;49.59;99900.78;5042692;28;20493;-57
2022/05/20 06:12:36;;;;;;;24.10;3.70;;;;;;;16.74;51.29;99930.41;5044212;28;20296;-57
2022/05/20 06:15:11;;;;;;;11.13;2.70;;;;;;;16.27;52.26;99913.22;5042997;28;20296;-57
2022/05/20 06:17:41;;;;;;;18.10;4.23;;;;;;;16.09;54.50;99945.69;5040820;28;20877;-57
2022/05/20 06:20:13;;;;;;;10.80;3.30;;;;;;;15.56;55.32;99906.69;5042976;28;20378;-56
2022/05/20 06:22:44;;;;;;;15.50;3.27;;;;;;;15.51;56.33;99952.50;5041435;28;20384;-54
2022/05/20 06:25:15;;;;;;;33.27;4.33;;;;;;;15.61;56.55;99941.59;5043156;28;20295;-67
2022/05/20 06:27:46;;;;;;;23.30;3.60;;;;;;;15.72;56.08;99952.53;5045033;28;20268;-58
2022/05/20 06:30:20;;;;;;;13.17;3.27;;;;;;;15.62;56.18;99898.53;5044136;28;20564;-56
2022/05/20 06:32:51;;;;;;;6.93;3.17;;;;;;;15.93;55.18;99949.00;5043678;28;20318;-58
2022/05/20 06:40:57;;;;;;;8.47;2.50;;;;;;;15.99;54.93;99957.56;5043059;28;20312;-58
2022/05/20 06:43:28;;;;;;;10.47;3.03;;;;;;;16.08;55.18;99967.72;5043043;28;20360;-58
2022/05/20 06:46:03;;;;;;;6.77;3.10;;;;;;;16.15;54.50;99966.53;5044787;28;20284;-57
2022/05/20 06:48:53;;;;;;;13.67;2.93;;;;;;;16.09;56.08;99974.69;5044889;28;20299;-58
2022/05/20 06:51:28;;;;;;;15.27;3.77;;;;;;;15.93;55.19;99949.00;5044507;28;20572;-58
2022/05/20 06:53:59;;;;;;;16.80;3.50;;;;;;;15.37;55.55;99902.19;5044800;28;20288;-58
2022/05/20 06:56:31;;;;;;;9.07;3.27;;;;;;;15.48;56.37;99978.97;5043895;28;20382;-59
2022/05/20 06:59:03;;;;;;;11.03;3.47;;;;;;;15.33;56.71;99948.00;5044420;28;20415;-58
2022/05/20 07:01:37;;;;;;;14.73;3.30;;;;;;;15.66;56.59;99974.72;5042712;28;20592;-58
2022/05/20 07:04:22;;;;;;;10.83;3.63;;;;;;;15.66;56.34;99952.78;5042758;28;20303;-57
2022/05/20 07:06:52;;;;;;;8.13;2.70;;;;;;;15.70;55.84;99978.09;5042874;28;20388;-58
2022/05/20 07:09:23;;;;;;;12.60;3.30;;;;;;;15.60;55.98;99987.28;5042384;28;20706;-58
2022/05/20 07:11:54;;;;;;;6.63;3.17;;;;;;;15.45;56.52;99973.84;5043584;28;20284;-58
2022/05/20 07:14:24;;;;;;;28.03;4.70;;;;;;;15.31;57.62;99994.59;5043748;28;20272;-58
2022/05/20 07:16:56;;;;;;;19.13;4.03;;;;;;;15.27;57.36;99995.63;5041693;28;20296;-57
2022/05/20 07:19:27;;;;;;;11.10;3.27;;;;;;;15.34;57.48;99991.84;5042511;28;20603;-58
2022/05/20 07:21:57;;;;;;;8.60;3.10;;;;;;;15.57;57.01;99992.66;5043058;28;20771;-57
2022/05/20 07:24:28;;;;;;;10.80;3.40;;;;;;;15.86;56.20;99989.72;5043570;28;20290;-58
2022/05/20 07:26:58;;;;;;;17.47;3.37;;;;;;;16.04;55.47;100003.03;5043334;28;20292;-59
2022/05/20 07:29:29;;;;;;;16.73;3.33;;;;;;;16.15;55.42;100000.78;5042915;28;20350;-58
2022/05/20 07:32:03;;;;;;;15.33;3.63;;;;;;;16.10;55.49;99994.84;5043651;28;20284;-59
2022/05/20 07:34:33;;;;;;;15.23;3.17;;;;;;;16.01;55.84;100003.16;5043816;28;20327;-57
2022/05/20 07:37:05;;;;;;;12.50;3.30;;;;;;;15.81;56.06;100010.13;5042756;28;20329;-59
2022/05/20 07:39:36;;;;;;;15.80;3.37;;;;;;;15.74;56.12;100000.75;5043732;28;20302;-58
2022/05/20 07:42:07;;;;;;;10.63;3.63;;;;;;;15.76;56.53;100004.19;5043834;28;20367;-58
2022/05/20 07:44:38;;;;;;;13.10;2.87;;;;;;;15.69;56.13;100007.97;5042239;28;20304;-58
2022/05/20 07:47:11;;;;;;;16.37;3.47;;;;;;;15.43;56.39;99999.38;5043486;28;20359;-58
2022/05/20 07:49:41;;;;;;;7.87;3.10;;;;;;;15.28;57.17;100013.16;5043511;28;20279;-58
2022/05/20 07:53:19;;;;;;;18.17;3.90;;;;;;;15.14;57.56;100010.19;5043478;28;20307;-58
2022/05/20 07:55:08;;;;;;;8.33;3.17;;;;;;;15.22;56.96;100023.91;5043605;28;20590;-59
2022/05/20 07:57:41;;;;;;;6.50;2.90;;;;;;;15.07;57.36;100018.31;5042777;28;20296;-58
2022/05/20 08:00:14;;;;;;;16.33;3.60;;;;;;;14.99;57.76;100023.03;5043091;28;20387;-58
2022/05/20 08:02:46;;;;;;;11.10;3.50;;;;;;;14.96;58.19;100017.88;5042875;28;20842;-58
2022/05/20 08:05:20;;;;;;;31.83;4.60;;;;;;;14.98;58.15;100020.47;5042785;28;20292;-59
2022/05/20 08:07:51;;;;;;;10.30;3.63;;;;;;;14.55;57.91;99954.56;5042381;28;20291;-58
2022/05/20 08:10:24;;;;;;;10.25;3.78;;;;;;;14.79;58.44;100026.41;5043484;28;20287;-58
2022/05/20 08:12:55;;;;;;;17.50;4.10;;;;;;;14.66;58.83;100036.53;5042611;28;20108;-58
2022/05/20 08:15:27;;;;;;;23.27;4.25;;;;;;;14.26;59.64;100009.94;5043300;28;20604;-58
2022/05/20 08:17:59;;;;;;;24.05;3.90;;;;;;;14.28;59.22;100051.03;5043296;28;20045;-58
2022/05/20 08:20:30;;;;;;;12.23;3.65;;;;;;;13.99;60.04;100054.66;5042726;28;20128;-58
2022/05/20 08:23:01;;;;;;;6.78;3.33;;;;;;;13.65;60.74;100061.00;5043270;28;20057;-58
2022/05/20 08:25:31;;;;;;;8.98;3.20;;;;;;;13.64;61.13;100064.53;5043087;28;20056;-58
2022/05/20 08:28:02;;;;;;;31.88;5.25;;;;;;;13.52;62.03;100062.31;5042756;28;20061;-58
2022/05/20 08:30:33;;;;;;;16.80;4.07;;;;;;;13.39;61.37;100067.09;5043661;28;20183;-59
2022/05/20 08:33:05;;;;;;;10.00;3.85;;;;;;;13.25;61.45;100067.47;5042694;28;20060;-58
2022/05/20 08:35:36;;;;;;;5.30;3.50;;;;;;;12.86;62.62;100070.38;5043158;28;20104;-59
2022/05/20 08:38:07;;;;;;;12.82;3.83;;;;;;;12.52;63.64;100076.56;5042193;28;20061;-58
2022/05/20 08:40:42;;;;;;;12.00;4.00;;;;;;;12.33;64.38;100064.88;5042694;28;20095;-58
2022/05/20 08:43:14;;;;;;;10.80;3.50;;;;;;;12.32;64.51;100073.63;5042678;28;20053;-57
2022/05/20 08:45:45;;;;;;;8.05;3.50;;;;;;;12.14;64.99;100064.50;5042045;28;20045;-58
2022/05/20 08:48:18;;;;;;;7.93;3.83;;;;;;;12.12;65.19;100081.16;5042653;28;20059;-59
2022/05/20 08:50:52;;;;;;;21.05;3.78;;;;;;;12.01;65.45;100079.66;5046550;28;20057;-57
2022/05/20 08:53:27;;;;;;;7.70;3.72;;;;;;;11.91;65.27;100086.03;5046208;28;20402;-57
2022/05/20 08:56:00;;;;;;;11.13;4.15;;;;;;;11.86;65.15;100080.03;5046213;28;20232;-58
2022/05/20 08:58:31;;;;;;;9.48;4.18;;;;;;;12.01;64.89;100094.53;5046085;28;20061;-58
2022/05/20 09:01:02;;;;;;;11.80;3.58;;;;;;;11.90;65.25;100097.38;5044543;28;20885;-58
2022/05/20 09:03:34;;;;;;;6.18;3.90;;;;;;;11.85;65.53;100104.47;5046428;28;20066;-57
2022/05/20 09:06:09;;;;;;;12.43;3.88;;;;;;;11.59;65.68;100087.63;5046973;28;20340;-57
2022/05/20 09:08:40;;;;;;;8.73;4.32;;;;;;;11.57;65.94;100110.34;5046570;28;20121;-59
2022/05/20 09:11:17;;;;;;;10.30;4.90;;;;;;;11.52;65.76;100106.97;5046415;28;20048;-58
2022/05/20 09:16:59;;;;;;;12.13;3.33;;;;;;;11.41;66.10;100116.84;4984369;28;20046;-58
2022/05/20 09:19:31;;;;;;;11.50;4.45;;;;;;;11.25;66.50;100123.28;4984599;28;20062;-58
2022/05/20 09:22:05;;;;;;;7.18;3.85;;;;;;;11.04;67.03;100115.00;5018062;28;20072;-58
2022/05/20 09:24:43;;;;;;;20.48;4.72;;;;;;;10.88;67.54;100118.81;5045497;28;20136;-57
2022/05/20 09:27:19;;;;;;;8.40;4.50;;;;;;;10.55;67.77;100105.50;5045858;28;20045;-57
2022/05/20 09:29:59;;;;;;;10.07;4.65;;;;;;;10.56;68.06;100123.78;5046274;28;20065;-58
2022/05/20 09:32:35;;;;;;;13.02;4.30;;;;;;;9.85;68.26;100035.34;5044803;28;20264;-58
2022/05/20 09:35:13;;;;;;;8.15;3.72;;;;;;;10.12;69.49;100121.91;5046292;28;20076;-57
2022/05/20 09:37:45;;;;;;;9.88;3.80;;;;;;;10.08;69.49;100142.00;5046126;28;20385;-58
2022/05/20 09:40:25;;;;;;;8.90;4.35;;;;;;;9.97;70.00;100154.34;5046022;28;20080;-57
2022/05/20 09:43:25;;;;;;;8.65;4.80;;;;;;;9.53;70.92;100108.91;5044432;28;20055;-57
2022/05/20 09:45:58;;;;;;;9.98;5.18;;;;;;;9.65;70.93;100167.88;5044810;28;20050;-57
2022/05/20 09:48:38;;;;;;;11.77;4.78;;;;;;;9.17;72.45;100126.78;5045022;28;20519;-57
2022/05/20 09:51:13;;;;;;;;;;;;;;;8.93;72.98;100125.31;5045779;28;20128;-58
2022/05/20 09:53:45;;;;;;;15.27;4.75;;;;;;;8.93;73.61;100161.81;5045539;28;19924;-58
2022/05/20 09:56:25;;;;;;;11.75;4.07;;;;;;;8.90;74.20;100180.09;5045401;28;21056;-58
2022/05/20 09:59:17;;;;;;;10.93;4.53;;;;;;;8.77;74.89;100186.31;5044477;28;20049;-58
2022/05/20 10:01:59;;;;;;;15.25;4.28;;;;;;;8.63;74.85;100189.91;5043471;28;20049;-59
2022/05/20 10:04:52;;;;;;;7.85;4.55;;;;;;;8.66;75.34;100206.38;5044892;28;20112;-59
2022/05/20 10:07:36;;;;;;;6.72;3.75;;;;;;;8.52;75.40;100186.56;5044615;28;20053;-59
2022/05/20 10:10:12;;;;;;;13.75;4.28;;;;;;;8.45;75.68;100208.31;5045671;28;20088;-58
2022/05/20 10:12:45;;;;;;;8.23;4.88;;;;;;;8.40;76.02;100207.50;5044566;28;20049;-58
2022/05/20 10:15:24;;;;;;;8.05;4.40;;;;;;;8.27;77.02;100213.66;5044682;28;20120;-57
2022/05/20 10:18:10;;;;;;;15.00;5.03;;;;;;;8.00;76.87;100186.94;5044771;28;20235;-57
2022/05/20 10:20:51;;;;;;;15.75;4.88;;;;;;;8.07;76.81;100214.66;5044231;28;20065;-57
2022/05/20 10:23:34;;;;;;;11.38;5.18;;;;;;;8.04;77.03;100230.28;5044156;28;20096;-58
2022/05/20 10:26:08;;;;;;;15.70;5.28;;;;;;;7.87;77.61;100213.94;5045046;28;20073;-58
2022/05/20 10:34:35;;;;;;;15.38;4.75;;;;;;;7.85;78.06;100250.34;5043158;28;20703;-57
2022/05/20 10:37:14;;;;;;;18.90;5.22;;;;;;;7.89;78.02;100248.63;5045207;28;20052;-57
2022/05/20 10:40:09;;;;;;;10.38;5.15;;;;;;;7.71;78.64;100253.03;5043784;28;20087;-57
2022/05/20 10:43:06;;;;;;;19.17;4.97;;;;;;;7.65;79.16;100263.44;5043793;28;20045;-57
2022/05/20 10:48:45;;;;;;;15.15;5.43;;;;;;;7.55;79.03;100265.22;5043040;28;20251;-58
2022/05/20 10:51:35;;;;;;;11.98;5.05;;;;;;;7.42;79.32;100275.69;5043467;28;20068;-58
2022/05/20 10:54:22;;;;;;;12.70;5.88;;;;;;;7.44;79.70;100281.72;5043557;28;20057;-57
2022/05/20 10:57:09;;;;;;;16.17;5.63;;;;;;;7.41;79.73;100279.13;5044156;28;20120;-58
2022/05/20 10:59:56;;;;;;;13.80;5.72;;;;;;;7.35;80.00;100280.88;5043851;28;20606;-58
2022/05/20 11:02:46;;;;;;;14.02;5.43;;;;;;;7.32;79.94;100280.91;5040316;28;20060;-57
2022/05/20 11:05:49;;;;;;;18.13;5.78;;;;;;;7.27;80.04;100285.25;5042567;28;20099;-57
2022/05/20 11:08:33;;;;;;;17.10;5.60;;;;;;;7.23;80.25;100296.50;5043995;28;20090;-57
2022/05/20 11:11:26;;;;;;;10.15;5.47;;;;;;;7.06;80.83;100304.38;5042764;28;20091;-57
2022/05/20 11:14:11;;;;;;;12.00;5.25;;;;;;;6.82;81.42;100299.19;5044280;28;20120;-58
2022/05/20 11:16:56;;;;;;;16.80;7.10;;;;;;;6.69;82.21;100306.13;5043148;28;20173;-57
2022/05/20 11:20:01;;;;;;;14.07;7.15;;;;;;;6.59;82.53;100317.34;5043402;28;20112;-57
2022/05/20 11:22:58;;;;;;;19.75;8.25;;;;;;;6.39;83.41;100310.41;5043065;28;20056;-58
2022/05/20 11:26:16;;;;;;;24.95;9.48;;;;;;;6.27;84.29;100323.38;5042759;28;20056;-57
2022/05/20 11:29:26;;;;;;;76.97;10.77;;;;;;;6.30;85.09;100320.78;4992183;28;20062;-57
2022/05/20 11:31:59;;;;;;;;;;;;;;;6.12;84.92;100321.59;4927215;29;20056;-58
2022/05/20 11:34:55;;;;;;;138.30;10.23;;;;;;;6.12;85.41;100323.34;5023095;28;19925;-58
2022/05/20 11:37:45;;;;;;;129.65;12.15;;;;;;;6.12;85.50;100306.03;5041509;28;20306;-58
2022/05/20 11:40:52;;;;;;;173.13;11.02;;;;;;;6.04;85.42;100324.19;5042711;28;20120;-58
2022/05/20 11:43:50;;;;;;;85.32;12.00;;;;;;;5.99;85.85;100320.72;5009295;28;20084;-57
2022/05/20 11:46:32;;;;;;;199.60;13.52;;;;;;;5.90;85.78;100325.81;5043802;28;20053;-58
2022/05/20 11:49:38;;;;;;;96.65;10.98;;;;;;;5.75;86.56;100323.16;5043504;28;20056;-57
2022/05/20 11:52:40;;;;;;;127.88;11.90;;;;;;;5.85;86.78;100322.34;5043729;28;20092;-57
2022/05/20 11:55:17;;;;;;;155.50;10.77;;;;;;;5.80;86.11;100326.66;5023812;28;20073;-58
2022/05/20 11:57:52;;;;;;;148.32;10.98;;;;;;;5.44;86.10;100289.31;5043076;28;20057;-59
2022/05/20 12:00:25;;;;;;;191.00;10.38;;;;;;;5.57;86.10;100322.22;5043331;28;20099;-58
2022/05/20 12:03:01;;;;;;;110.20;9.15;;;;;;;5.53;86.74;100330.84;5042511;28;20053;-59
2022/05/20 12:05:39;;;;;;;119.88;10.23;;;;;;;5.52;86.67;100316.16;5043270;28;20061;-59
2022/05/20 12:08:09;;;;;;;69.88;9.23;;;;;;;5.59;86.57;100341.25;5043746;28;20067;-58
2022/05/20 12:10:47;;;;;;;84.30;9.38;;;;;;;5.54;86.25;100327.41;5042944;28;20271;-58
2022/05/20 12:13:24;;;;;;;118.47;9.82;;;;;;;5.62;86.48;100336.06;5042146;28;20056;-59
2022/05/20 12:16:13;;;;;;;160.38;10.75;;;;;;;5.55;85.91;100344.69;5041960;28;20075;-58
2022/05/20 12:24:41;;;;;;;76.53;9.20;;;;;;;5.19;86.39;100309.94;5049201;28;20076;-58
2022/05/20 12:27:33;;;;;;;46.97;9.38;;;;;;;5.34;86.48;100344.53;5055249;28;20111;-59
2022/05/20 12:30:08;;;;;;;35.25;8.82;;;;;;;5.30;86.82;100332.44;5051043;28;20111;-57
2022/05/20 12:32:48;;;;;;;107.72;10.20;;;;;;;5.41;86.89;100346.31;5050326;28;20049;-58
2022/05/20 12:35:20;;;;;;;;;;;;;;;5.47;87.05;100346.38;5041278;28;20092;-58
2022/05/20 12:38:26;;;;;;;73.80;8.20;;;;;;;5.31;86.66;100339.34;5040565;28;19991;-57
2022/05/20 12:41:03;;;;;;;58.25;7.70;;;;;;;5.09;86.94;100308.16;5040571;28;20120;-58
2022/05/20 12:44:26;;;;;;;54.15;8.85;;;;;;;5.15;87.22;100323.72;5040466;28;20076;-57